sensor_id;sensor_type;location;lat;lon;timestamp;temperature;humidity
78733;DHT22;68056;52.530;5.454;2023-05-07T00:01:07;15.00;72.40
78733;DHT22;68056;52.530;5.454;2023-05-07T00:03:32;15.00;72.50
78733;DHT22;68056;52.530;5.454;2023-05-07T00:05:58;15.00;72.50
78733;DHT22;68056;52.530;5.454;2023-05-07T00:08:24;15.00;72.60
78733;DHT22;68056;52.530;5.454;2023-05-07T00:10:50;15.00;72.60
78733;DHT22;68056;52.530;5.454;2023-05-07T00:13:16;15.00;72.60
78733;DHT22;68056;52.530;5.454;2023-05-07T00:15:42;15.00;72.50
78733;DHT22;68056;52.530;5.454;2023-05-07T00:18:07;15.00;72.60
78733;DHT22;68056;52.530;5.454;2023-05-07T00:20:41;15.00;72.60
78733;DHT22;68056;52.530;5.454;2023-05-07T00:23:08;15.00;72.60
78733;DHT22;68056;52.530;5.454;2023-05-07T00:25:38;15.00;72.60
78733;DHT22;68056;52.530;5.454;2023-05-07T00:28:04;15.00;72.50
78733;DHT22;68056;52.530;5.454;2023-05-07T00:30:29;14.90;72.60
78733;DHT22;68056;52.530;5.454;2023-05-07T00:32:55;14.90;72.60
78733;DHT22;68056;52.530;5.454;2023-05-07T00:35:21;14.90;72.70
78733;DHT22;68056;52.530;5.454;2023-05-07T00:37:46;14.90;72.80
78733;DHT22;68056;52.530;5.454;2023-05-07T00:40:13;14.90;72.80
78733;DHT22;68056;52.530;5.454;2023-05-07T00:42:39;14.90;72.80
78733;DHT22;68056;52.530;5.454;2023-05-07T00:45:06;14.90;72.80
78733;DHT22;68056;52.530;5.454;2023-05-07T00:47:34;14.90;72.90
78733;DHT22;68056;52.530;5.454;2023-05-07T00:50:00;14.90;72.80
78733;DHT22;68056;52.530;5.454;2023-05-07T00:52:27;14.90;72.90
78733;DHT22;68056;52.530;5.454;2023-05-07T00:54:54;14.90;72.90
78733;DHT22;68056;52.530;5.454;2023-05-07T00:57:20;14.90;72.80
78733;DHT22;68056;52.530;5.454;2023-05-07T00:59:46;14.90;72.80
78733;DHT22;68056;52.530;5.454;2023-05-07T01:02:12;14.90;72.90
78733;DHT22;68056;52.530;5.454;2023-05-07T01:04:38;14.90;72.90
78733;DHT22;68056;52.530;5.454;2023-05-07T01:07:03;14.90;72.90
78733;DHT22;68056;52.530;5.454;2023-05-07T01:09:30;14.90;72.80
78733;DHT22;68056;52.530;5.454;2023-05-07T01:11:57;14.90;72.80
78733;DHT22;68056;52.530;5.454;2023-05-07T01:14:23;14.90;72.80
78733;DHT22;68056;52.530;5.454;2023-05-07T01:16:49;14.80;72.80
78733;DHT22;68056;52.530;5.454;2023-05-07T01:19:18;14.90;72.80
78733;DHT22;68056;52.530;5.454;2023-05-07T01:21:48;14.80;72.80
78733;DHT22;68056;52.530;5.454;2023-05-07T01:24:15;14.80;72.80
78733;DHT22;68056;52.530;5.454;2023-05-07T01:26:41;14.80;72.80
78733;DHT22;68056;52.530;5.454;2023-05-07T01:29:07;14.80;72.90
78733;DHT22;68056;52.530;5.454;2023-05-07T01:31:34;14.80;72.90
78733;DHT22;68056;52.530;5.454;2023-05-07T01:34:01;14.80;73.00
78733;DHT22;68056;52.530;5.454;2023-05-07T01:36:28;14.80;72.90
78733;DHT22;68056;52.530;5.454;2023-05-07T01:38:54;14.80;73.00
78733;DHT22;68056;52.530;5.454;2023-05-07T01:41:23;14.80;73.00
78733;DHT22;68056;52.530;5.454;2023-05-07T01:43:50;14.80;72.90
78733;DHT22;68056;52.530;5.454;2023-05-07T01:46:17;14.80;72.90
78733;DHT22;68056;52.530;5.454;2023-05-07T01:48:44;14.80;73.00
78733;DHT22;68056;52.530;5.454;2023-05-07T01:51:11;14.80;73.00
78733;DHT22;68056;52.530;5.454;2023-05-07T01:53:38;14.80;73.00
78733;DHT22;68056;52.530;5.454;2023-05-07T01:56:04;14.70;73.10
78733;DHT22;68056;52.530;5.454;2023-05-07T01:58:29;14.70;73.10
78733;DHT22;68056;52.530;5.454;2023-05-07T02:00:55;14.80;73.10
78733;DHT22;68056;52.530;5.454;2023-05-07T02:03:20;14.70;73.20
78733;DHT22;68056;52.530;5.454;2023-05-07T02:05:46;14.70;73.20
78733;DHT22;68056;52.530;5.454;2023-05-07T02:08:11;14.70;73.30
78733;DHT22;68056;52.530;5.454;2023-05-07T02:10:37;14.70;73.20
78733;DHT22;68056;52.530;5.454;2023-05-07T02:13:03;14.70;73.20
78733;DHT22;68056;52.530;5.454;2023-05-07T02:15:28;14.70;73.20
78733;DHT22;68056;52.530;5.454;2023-05-07T02:18:08;14.70;73.30
78733;DHT22;68056;52.530;5.454;2023-05-07T02:20:34;14.70;73.30
78733;DHT22;68056;52.530;5.454;2023-05-07T02:23:00;14.70;73.30
78733;DHT22;68056;52.530;5.454;2023-05-07T02:25:26;14.70;73.30
78733;DHT22;68056;52.530;5.454;2023-05-07T02:27:53;14.70;73.30
78733;DHT22;68056;52.530;5.454;2023-05-07T02:30:18;14.70;73.30
78733;DHT22;68056;52.530;5.454;2023-05-07T02:32:46;14.70;73.40
78733;DHT22;68056;52.530;5.454;2023-05-07T02:35:11;14.70;73.40
78733;DHT22;68056;52.530;5.454;2023-05-07T02:37:37;14.70;73.40
78733;DHT22;68056;52.530;5.454;2023-05-07T02:40:03;14.70;73.40
78733;DHT22;68056;52.530;5.454;2023-05-07T02:42:29;14.70;73.40
78733;DHT22;68056;52.530;5.454;2023-05-07T02:44:55;14.70;73.40
78733;DHT22;68056;52.530;5.454;2023-05-07T02:47:20;14.70;73.50
78733;DHT22;68056;52.530;5.454;2023-05-07T02:49:46;14.70;73.40
78733;DHT22;68056;52.530;5.454;2023-05-07T02:52:12;14.70;73.40
78733;DHT22;68056;52.530;5.454;2023-05-07T02:54:38;14.70;73.50
78733;DHT22;68056;52.530;5.454;2023-05-07T02:57:03;14.60;73.50
78733;DHT22;68056;52.530;5.454;2023-05-07T02:59:29;14.70;73.50
78733;DHT22;68056;52.530;5.454;2023-05-07T03:01:55;14.60;73.50
78733;DHT22;68056;52.530;5.454;2023-05-07T03:04:20;14.60;73.60
78733;DHT22;68056;52.530;5.454;2023-05-07T03:06:46;14.70;73.60
78733;DHT22;68056;52.530;5.454;2023-05-07T03:09:12;14.60;73.70
78733;DHT22;68056;52.530;5.454;2023-05-07T03:11:37;14.60;73.60
78733;DHT22;68056;52.530;5.454;2023-05-07T03:14:03;14.60;73.60
78733;DHT22;68056;52.530;5.454;2023-05-07T03:16:28;14.70;73.70
78733;DHT22;68056;52.530;5.454;2023-05-07T03:18:54;14.60;73.70
78733;DHT22;68056;52.530;5.454;2023-05-07T03:21:19;14.60;73.70
78733;DHT22;68056;52.530;5.454;2023-05-07T03:23:45;14.60;73.70
78733;DHT22;68056;52.530;5.454;2023-05-07T03:26:11;14.60;73.70
78733;DHT22;68056;52.530;5.454;2023-05-07T03:28:37;14.60;73.80
78733;DHT22;68056;52.530;5.454;2023-05-07T03:31:02;14.60;73.80
78733;DHT22;68056;52.530;5.454;2023-05-07T03:33:28;14.60;73.80
78733;DHT22;68056;52.530;5.454;2023-05-07T03:35:54;14.60;73.80
78733;DHT22;68056;52.530;5.454;2023-05-07T03:38:19;14.60;73.90
78733;DHT22;68056;52.530;5.454;2023-05-07T03:40:45;14.60;73.80
78733;DHT22;68056;52.530;5.454;2023-05-07T03:43:11;14.60;73.90
78733;DHT22;68056;52.530;5.454;2023-05-07T03:45:37;14.60;73.90
78733;DHT22;68056;52.530;5.454;2023-05-07T03:48:02;14.60;73.90
78733;DHT22;68056;52.530;5.454;2023-05-07T03:50:28;14.60;73.90
78733;DHT22;68056;52.530;5.454;2023-05-07T03:52:54;14.60;73.90
78733;DHT22;68056;52.530;5.454;2023-05-07T03:55:19;14.60;73.80
78733;DHT22;68056;52.530;5.454;2023-05-07T03:57:45;14.50;73.80
78733;DHT22;68056;52.530;5.454;2023-05-07T04:00:11;14.50;73.90
78733;DHT22;68056;52.530;5.454;2023-05-07T04:02:37;14.50;73.90
78733;DHT22;68056;52.530;5.454;2023-05-07T04:05:02;14.50;73.90
78733;DHT22;68056;52.530;5.454;2023-05-07T04:07:28;14.50;73.80
78733;DHT22;68056;52.530;5.454;2023-05-07T04:09:53;14.50;73.90
78733;DHT22;68056;52.530;5.454;2023-05-07T04:12:19;14.40;73.90
78733;DHT22;68056;52.530;5.454;2023-05-07T04:14:45;14.50;73.90
78733;DHT22;68056;52.530;5.454;2023-05-07T04:17:10;14.40;73.80
78733;DHT22;68056;52.530;5.454;2023-05-07T04:19:36;14.40;73.90
78733;DHT22;68056;52.530;5.454;2023-05-07T04:22:03;14.40;73.90
78733;DHT22;68056;52.530;5.454;2023-05-07T04:24:31;14.40;73.90
78733;DHT22;68056;52.530;5.454;2023-05-07T04:26:58;14.40;74.00
78733;DHT22;68056;52.530;5.454;2023-05-07T04:29:25;14.40;74.00
78733;DHT22;68056;52.530;5.454;2023-05-07T04:31:50;14.40;73.90
78733;DHT22;68056;52.530;5.454;2023-05-07T04:34:16;14.40;73.90
78733;DHT22;68056;52.530;5.454;2023-05-07T04:36:43;14.40;74.00
78733;DHT22;68056;52.530;5.454;2023-05-07T04:39:08;14.40;74.00
78733;DHT22;68056;52.530;5.454;2023-05-07T04:41:36;14.40;74.00
78733;DHT22;68056;52.530;5.454;2023-05-07T04:44:01;14.40;74.10
78733;DHT22;68056;52.530;5.454;2023-05-07T04:46:29;14.40;74.10
78733;DHT22;68056;52.530;5.454;2023-05-07T04:48:54;14.40;74.00
78733;DHT22;68056;52.530;5.454;2023-05-07T04:51:20;14.40;74.10
78733;DHT22;68056;52.530;5.454;2023-05-07T04:53:46;14.40;74.10
78733;DHT22;68056;52.530;5.454;2023-05-07T04:56:11;14.40;74.10
78733;DHT22;68056;52.530;5.454;2023-05-07T04:58:37;14.40;74.10
78733;DHT22;68056;52.530;5.454;2023-05-07T05:01:02;14.50;74.10
78733;DHT22;68056;52.530;5.454;2023-05-07T05:03:28;14.40;74.10
78733;DHT22;68056;52.530;5.454;2023-05-07T05:05:53;14.40;74.10
78733;DHT22;68056;52.530;5.454;2023-05-07T05:08:19;14.50;74.20
78733;DHT22;68056;52.530;5.454;2023-05-07T05:10:45;14.50;74.20
78733;DHT22;68056;52.530;5.454;2023-05-07T05:13:10;14.50;74.10
78733;DHT22;68056;52.530;5.454;2023-05-07T05:15:38;14.50;74.10
78733;DHT22;68056;52.530;5.454;2023-05-07T05:18:04;14.50;74.20
78733;DHT22;68056;52.530;5.454;2023-05-07T05:20:30;14.50;74.20
78733;DHT22;68056;52.530;5.454;2023-05-07T05:22:55;14.50;74.20
78733;DHT22;68056;52.530;5.454;2023-05-07T05:25:21;14.40;74.20
78733;DHT22;68056;52.530;5.454;2023-05-07T05:27:46;14.40;74.20
78733;DHT22;68056;52.530;5.454;2023-05-07T05:30:12;14.40;74.20
78733;DHT22;68056;52.530;5.454;2023-05-07T05:32:39;14.40;74.30
78733;DHT22;68056;52.530;5.454;2023-05-07T05:35:04;14.40;74.30
78733;DHT22;68056;52.530;5.454;2023-05-07T05:37:30;14.40;74.30
78733;DHT22;68056;52.530;5.454;2023-05-07T05:39:56;14.40;74.30
78733;DHT22;68056;52.530;5.454;2023-05-07T05:42:23;14.40;74.30
78733;DHT22;68056;52.530;5.454;2023-05-07T05:44:50;14.40;74.30
78733;DHT22;68056;52.530;5.454;2023-05-07T05:47:15;14.40;74.20
78733;DHT22;68056;52.530;5.454;2023-05-07T05:49:41;14.50;74.20
78733;DHT22;68056;52.530;5.454;2023-05-07T05:52:08;14.50;74.10
78733;DHT22;68056;52.530;5.454;2023-05-07T05:54:34;14.50;74.10
78733;DHT22;68056;52.530;5.454;2023-05-07T05:57:00;14.50;73.90
78733;DHT22;68056;52.530;5.454;2023-05-07T05:59:25;14.60;73.90
78733;DHT22;68056;52.530;5.454;2023-05-07T06:01:51;14.60;73.90
78733;DHT22;68056;52.530;5.454;2023-05-07T06:04:16;14.60;73.80
78733;DHT22;68056;52.530;5.454;2023-05-07T06:06:42;14.60;73.80
78733;DHT22;68056;52.530;5.454;2023-05-07T06:09:07;14.60;73.90
78733;DHT22;68056;52.530;5.454;2023-05-07T06:11:33;14.60;73.90
78733;DHT22;68056;52.530;5.454;2023-05-07T06:13:58;14.60;73.90
78733;DHT22;68056;52.530;5.454;2023-05-07T06:16:24;14.60;73.90
78733;DHT22;68056;52.530;5.454;2023-05-07T06:18:50;14.70;74.00
78733;DHT22;68056;52.530;5.454;2023-05-07T06:21:16;14.70;73.80
78733;DHT22;68056;52.530;5.454;2023-05-07T06:23:41;14.80;73.70
78733;DHT22;68056;52.530;5.454;2023-05-07T06:26:07;14.90;73.60
78733;DHT22;68056;52.530;5.454;2023-05-07T06:28:33;15.00;73.40
78733;DHT22;68056;52.530;5.454;2023-05-07T06:31:20;15.00;73.40
78733;DHT22;68056;52.530;5.454;2023-05-07T06:33:46;15.00;73.20
78733;DHT22;68056;52.530;5.454;2023-05-07T06:36:12;15.00;73.30
78733;DHT22;68056;52.530;5.454;2023-05-07T06:38:37;14.90;73.30
78733;DHT22;68056;52.530;5.454;2023-05-07T06:41:03;15.00;73.40
78733;DHT22;68056;52.530;5.454;2023-05-07T06:43:28;15.00;73.30
78733;DHT22;68056;52.530;5.454;2023-05-07T06:45:54;15.00;73.30
78733;DHT22;68056;52.530;5.454;2023-05-07T06:48:20;15.00;73.30
78733;DHT22;68056;52.530;5.454;2023-05-07T06:50:45;15.10;73.20
78733;DHT22;68056;52.530;5.454;2023-05-07T06:53:11;15.10;73.20
78733;DHT22;68056;52.530;5.454;2023-05-07T06:55:36;15.20;73.10
78733;DHT22;68056;52.530;5.454;2023-05-07T06:58:03;15.20;73.10
78733;DHT22;68056;52.530;5.454;2023-05-07T07:00:29;15.20;73.00
78733;DHT22;68056;52.530;5.454;2023-05-07T07:02:55;15.30;72.90
78733;DHT22;68056;52.530;5.454;2023-05-07T07:05:21;15.30;72.90
78733;DHT22;68056;52.530;5.454;2023-05-07T07:07:46;15.30;72.90
78733;DHT22;68056;52.530;5.454;2023-05-07T07:10:21;15.30;72.80
78733;DHT22;68056;52.530;5.454;2023-05-07T07:12:47;15.30;72.70
78733;DHT22;68056;52.530;5.454;2023-05-07T07:15:16;15.20;72.80
78733;DHT22;68056;52.530;5.454;2023-05-07T07:17:41;15.30;72.90
78733;DHT22;68056;52.530;5.454;2023-05-07T07:20:09;15.30;72.80
78733;DHT22;68056;52.530;5.454;2023-05-07T07:22:37;15.30;72.70
78733;DHT22;68056;52.530;5.454;2023-05-07T07:25:04;15.40;72.70
78733;DHT22;68056;52.530;5.454;2023-05-07T07:27:30;15.40;72.50
78733;DHT22;68056;52.530;5.454;2023-05-07T07:29:56;15.40;72.50
78733;DHT22;68056;52.530;5.454;2023-05-07T07:32:21;15.40;72.50
78733;DHT22;68056;52.530;5.454;2023-05-07T07:34:47;15.50;72.50
78733;DHT22;68056;52.530;5.454;2023-05-07T07:37:12;15.50;72.50
78733;DHT22;68056;52.530;5.454;2023-05-07T07:39:38;15.60;72.40
78733;DHT22;68056;52.530;5.454;2023-05-07T07:42:05;15.70;72.30
78733;DHT22;68056;52.530;5.454;2023-05-07T07:44:30;15.80;72.20
78733;DHT22;68056;52.530;5.454;2023-05-07T07:46:56;15.80;72.10
78733;DHT22;68056;52.530;5.454;2023-05-07T07:49:21;15.80;72.10
78733;DHT22;68056;52.530;5.454;2023-05-07T07:51:47;15.80;72.10
78733;DHT22;68056;52.530;5.454;2023-05-07T07:54:12;16.10;72.20
78733;DHT22;68056;52.530;5.454;2023-05-07T07:56:38;16.60;71.60
78733;DHT22;68056;52.530;5.454;2023-05-07T07:59:04;17.00;70.90
78733;DHT22;68056;52.530;5.454;2023-05-07T08:01:30;17.10;70.50
78733;DHT22;68056;52.530;5.454;2023-05-07T08:03:56;17.20;70.20
78733;DHT22;68056;52.530;5.454;2023-05-07T08:06:24;17.20;70.20
78733;DHT22;68056;52.530;5.454;2023-05-07T08:08:51;17.20;70.20
78733;DHT22;68056;52.530;5.454;2023-05-07T08:11:16;17.20;70.30
78733;DHT22;68056;52.530;5.454;2023-05-07T08:13:42;17.30;70.30
78733;DHT22;68056;52.530;5.454;2023-05-07T08:16:08;17.50;70.20
78733;DHT22;68056;52.530;5.454;2023-05-07T08:18:34;17.80;69.80
78733;DHT22;68056;52.530;5.454;2023-05-07T08:21:00;18.10;69.30
78733;DHT22;68056;52.530;5.454;2023-05-07T08:23:26;18.40;68.80
78733;DHT22;68056;52.530;5.454;2023-05-07T08:25:52;18.60;68.30
78733;DHT22;68056;52.530;5.454;2023-05-07T08:28:17;18.50;68.30
78733;DHT22;68056;52.530;5.454;2023-05-07T08:30:44;18.40;68.20
78733;DHT22;68056;52.530;5.454;2023-05-07T08:33:10;18.40;68.20
78733;DHT22;68056;52.530;5.454;2023-05-07T08:35:38;18.50;68.40
78733;DHT22;68056;52.530;5.454;2023-05-07T08:38:04;18.40;68.40
78733;DHT22;68056;52.530;5.454;2023-05-07T08:40:33;18.60;68.50
78733;DHT22;68056;52.530;5.454;2023-05-07T08:43:02;18.80;68.30
78733;DHT22;68056;52.530;5.454;2023-05-07T08:45:30;19.10;67.90
78733;DHT22;68056;52.530;5.454;2023-05-07T08:47:59;19.10;67.50
78733;DHT22;68056;52.530;5.454;2023-05-07T08:50:25;18.90;67.70
78733;DHT22;68056;52.530;5.454;2023-05-07T08:52:51;18.90;67.90
78733;DHT22;68056;52.530;5.454;2023-05-07T08:55:17;18.90;67.80
78733;DHT22;68056;52.530;5.454;2023-05-07T08:57:43;18.80;67.70
78733;DHT22;68056;52.530;5.454;2023-05-07T09:00:09;18.70;67.90
78733;DHT22;68056;52.530;5.454;2023-05-07T09:02:36;18.70;68.00
78733;DHT22;68056;52.530;5.454;2023-05-07T09:05:02;18.80;67.80
78733;DHT22;68056;52.530;5.454;2023-05-07T09:07:28;19.00;67.60
78733;DHT22;68056;52.530;5.454;2023-05-07T09:10:00;19.00;67.30
78733;DHT22;68056;52.530;5.454;2023-05-07T09:12:26;19.00;67.40
78733;DHT22;68056;52.530;5.454;2023-05-07T09:14:52;19.00;67.20
78733;DHT22;68056;52.530;5.454;2023-05-07T09:17:17;19.10;67.10
78733;DHT22;68056;52.530;5.454;2023-05-07T09:19:44;19.20;66.80
78733;DHT22;68056;52.530;5.454;2023-05-07T09:22:10;19.30;66.80
78733;DHT22;68056;52.530;5.454;2023-05-07T09:24:37;19.50;66.60
78733;DHT22;68056;52.530;5.454;2023-05-07T09:27:03;19.70;66.20
78733;DHT22;68056;52.530;5.454;2023-05-07T09:29:30;19.80;66.10
78733;DHT22;68056;52.530;5.454;2023-05-07T09:32:06;20.00;65.90
78733;DHT22;68056;52.530;5.454;2023-05-07T09:34:33;20.00;65.70
78733;DHT22;68056;52.530;5.454;2023-05-07T09:37:01;20.20;65.70
78733;DHT22;68056;52.530;5.454;2023-05-07T09:39:38;20.30;65.40
78733;DHT22;68056;52.530;5.454;2023-05-07T09:42:06;20.20;65.60
78733;DHT22;68056;52.530;5.454;2023-05-07T09:44:34;20.10;65.50
78733;DHT22;68056;52.530;5.454;2023-05-07T09:47:00;20.10;65.60
78733;DHT22;68056;52.530;5.454;2023-05-07T09:49:28;20.20;65.70
78733;DHT22;68056;52.530;5.454;2023-05-07T09:51:56;20.20;65.80
78733;DHT22;68056;52.530;5.454;2023-05-07T09:54:22;20.10;65.90
78733;DHT22;68056;52.530;5.454;2023-05-07T09:56:48;20.10;66.10
78733;DHT22;68056;52.530;5.454;2023-05-07T09:59:15;20.10;66.20
78733;DHT22;68056;52.530;5.454;2023-05-07T10:01:44;20.10;66.10
78733;DHT22;68056;52.530;5.454;2023-05-07T10:04:11;20.30;65.90
78733;DHT22;68056;52.530;5.454;2023-05-07T10:06:37;20.30;65.80
78733;DHT22;68056;52.530;5.454;2023-05-07T10:09:04;20.30;65.80
78733;DHT22;68056;52.530;5.454;2023-05-07T10:11:34;20.50;65.70
78733;DHT22;68056;52.530;5.454;2023-05-07T10:14:01;20.60;65.20
78733;DHT22;68056;52.530;5.454;2023-05-07T10:16:31;20.50;65.00
78733;DHT22;68056;52.530;5.454;2023-05-07T10:18:58;20.30;65.10
78733;DHT22;68056;52.530;5.454;2023-05-07T10:21:27;20.30;65.10
78733;DHT22;68056;52.530;5.454;2023-05-07T10:24:03;20.30;65.10
78733;DHT22;68056;52.530;5.454;2023-05-07T10:26:32;20.30;65.00
78733;DHT22;68056;52.530;5.454;2023-05-07T10:29:03;20.30;65.00
78733;DHT22;68056;52.530;5.454;2023-05-07T10:32:50;20.30;65.00
78733;DHT22;68056;52.530;5.454;2023-05-07T10:34:47;20.40;64.90
78733;DHT22;68056;52.530;5.454;2023-05-07T10:37:13;20.50;64.70
78733;DHT22;68056;52.530;5.454;2023-05-07T10:39:39;20.70;64.40
78733;DHT22;68056;52.530;5.454;2023-05-07T10:42:13;21.00;64.30
78733;DHT22;68056;52.530;5.454;2023-05-07T10:44:41;21.50;63.90
78733;DHT22;68056;52.530;5.454;2023-05-07T10:47:09;21.90;63.20
78733;DHT22;68056;52.530;5.454;2023-05-07T10:49:36;22.40;62.70
78733;DHT22;68056;52.530;5.454;2023-05-07T10:57:40;22.60;62.30
78733;DHT22;68056;52.530;5.454;2023-05-07T11:05:31;22.70;62.10
78733;DHT22;68056;52.530;5.454;2023-05-07T11:07:58;23.00;61.50
78733;DHT22;68056;52.530;5.454;2023-05-07T11:13:18;23.40;60.90
78733;DHT22;68056;52.530;5.454;2023-05-07T11:15:45;23.60;61.00
78733;DHT22;68056;52.530;5.454;2023-05-07T11:18:12;23.90;60.90
78733;DHT22;68056;52.530;5.454;2023-05-07T11:20:57;24.00;60.80
78733;DHT22;68056;52.530;5.454;2023-05-07T11:26:07;24.30;59.80
78733;DHT22;68056;52.530;5.454;2023-05-07T11:28:38;24.20;59.60
78733;DHT22;68056;52.530;5.454;2023-05-07T11:31:04;24.20;59.40
78733;DHT22;68056;52.530;5.454;2023-05-07T11:33:31;24.30;59.30
78733;DHT22;68056;52.530;5.454;2023-05-07T11:35:57;24.40;58.90
78733;DHT22;68056;52.530;5.454;2023-05-07T11:38:23;24.60;58.60
78733;DHT22;68056;52.530;5.454;2023-05-07T11:40:55;24.70;58.50
78733;DHT22;68056;52.530;5.454;2023-05-07T11:43:21;24.80;58.60
78733;DHT22;68056;52.530;5.454;2023-05-07T11:45:47;25.00;58.80
78733;DHT22;68056;52.530;5.454;2023-05-07T11:48:14;25.00;58.40
78733;DHT22;68056;52.530;5.454;2023-05-07T11:53:31;24.80;58.20
78733;DHT22;68056;52.530;5.454;2023-05-07T11:56:09;25.00;58.10
78733;DHT22;68056;52.530;5.454;2023-05-07T11:58:35;25.10;58.00
78733;DHT22;68056;52.530;5.454;2023-05-07T12:01:01;25.00;58.20
78733;DHT22;68056;52.530;5.454;2023-05-07T12:03:27;25.00;58.20
78733;DHT22;68056;52.530;5.454;2023-05-07T12:05:53;24.90;58.30
78733;DHT22;68056;52.530;5.454;2023-05-07T12:08:20;25.00;58.40
78733;DHT22;68056;52.530;5.454;2023-05-07T12:10:50;25.20;58.30
78733;DHT22;68056;52.530;5.454;2023-05-07T12:13:22;25.50;58.20
78733;DHT22;68056;52.530;5.454;2023-05-07T12:15:55;25.60;57.60
78733;DHT22;68056;52.530;5.454;2023-05-07T12:18:21;25.60;57.60
78733;DHT22;68056;52.530;5.454;2023-05-07T12:20:48;25.60;57.60
78733;DHT22;68056;52.530;5.454;2023-05-07T12:23:15;25.60;57.00
78733;DHT22;68056;52.530;5.454;2023-05-07T12:25:41;25.60;56.60
78733;DHT22;68056;52.530;5.454;2023-05-07T12:28:15;25.50;56.80
78733;DHT22;68056;52.530;5.454;2023-05-07T12:30:46;25.60;57.40
78733;DHT22;68056;52.530;5.454;2023-05-07T12:33:16;26.10;57.30
78733;DHT22;68056;52.530;5.454;2023-05-07T12:35:42;26.40;56.60
78733;DHT22;68056;52.530;5.454;2023-05-07T12:38:12;26.50;55.80
78733;DHT22;68056;52.530;5.454;2023-05-07T12:40:45;26.40;55.20
78733;DHT22;68056;52.530;5.454;2023-05-07T12:43:20;26.10;55.50
78733;DHT22;68056;52.530;5.454;2023-05-07T12:45:49;26.10;55.70
78733;DHT22;68056;52.530;5.454;2023-05-07T12:48:16;26.40;55.70
78733;DHT22;68056;52.530;5.454;2023-05-07T12:50:43;26.40;55.20
78733;DHT22;68056;52.530;5.454;2023-05-07T12:53:11;26.40;55.30
78733;DHT22;68056;52.530;5.454;2023-05-07T12:55:42;26.10;55.20
78733;DHT22;68056;52.530;5.454;2023-05-07T12:58:08;25.80;55.50
78733;DHT22;68056;52.530;5.454;2023-05-07T13:00:37;25.60;55.80
78733;DHT22;68056;52.530;5.454;2023-05-07T13:03:03;25.40;55.90
78733;DHT22;68056;52.530;5.454;2023-05-07T13:05:29;25.20;56.20
78733;DHT22;68056;52.530;5.454;2023-05-07T13:07:56;25.00;56.30
78733;DHT22;68056;52.530;5.454;2023-05-07T13:10:22;25.10;55.90
78733;DHT22;68056;52.530;5.454;2023-05-07T13:12:48;25.10;55.80
78733;DHT22;68056;52.530;5.454;2023-05-07T13:15:14;25.10;56.00
78733;DHT22;68056;52.530;5.454;2023-05-07T13:17:39;25.20;56.10
78733;DHT22;68056;52.530;5.454;2023-05-07T13:20:05;25.40;55.60
78733;DHT22;68056;52.530;5.454;2023-05-07T13:22:32;25.40;55.30
78733;DHT22;68056;52.530;5.454;2023-05-07T13:24:57;25.30;55.40
78733;DHT22;68056;52.530;5.454;2023-05-07T13:27:23;25.40;55.40
78733;DHT22;68056;52.530;5.454;2023-05-07T13:29:48;25.60;55.30
78733;DHT22;68056;52.530;5.454;2023-05-07T13:32:14;25.50;55.00
78733;DHT22;68056;52.530;5.454;2023-05-07T13:34:39;25.30;55.20
78733;DHT22;68056;52.530;5.454;2023-05-07T13:37:05;25.00;55.40
78733;DHT22;68056;52.530;5.454;2023-05-07T13:39:33;25.00;55.80
78733;DHT22;68056;52.530;5.454;2023-05-07T13:41:58;24.80;56.00
78733;DHT22;68056;52.530;5.454;2023-05-07T13:44:24;24.60;55.80
78733;DHT22;68056;52.530;5.454;2023-05-07T13:46:49;24.40;56.30
78733;DHT22;68056;52.530;5.454;2023-05-07T13:49:15;24.20;56.70
78733;DHT22;68056;52.530;5.454;2023-05-07T13:51:41;24.10;56.90
78733;DHT22;68056;52.530;5.454;2023-05-07T13:54:06;24.00;57.20
78733;DHT22;68056;52.530;5.454;2023-05-07T13:56:32;24.00;57.20
78733;DHT22;68056;52.530;5.454;2023-05-07T13:58:58;23.90;57.00
78733;DHT22;68056;52.530;5.454;2023-05-07T14:01:24;23.90;57.20
78733;DHT22;68056;52.530;5.454;2023-05-07T14:03:49;23.80;57.50
78733;DHT22;68056;52.530;5.454;2023-05-07T14:06:15;23.60;57.60
78733;DHT22;68056;52.530;5.454;2023-05-07T14:08:40;23.40;57.80
78733;DHT22;68056;52.530;5.454;2023-05-07T14:11:06;23.30;57.80
78733;DHT22;68056;52.530;5.454;2023-05-07T14:13:31;23.10;57.90
78733;DHT22;68056;52.530;5.454;2023-05-07T14:15:57;23.00;58.00
78733;DHT22;68056;52.530;5.454;2023-05-07T14:18:23;22.90;58.30
78733;DHT22;68056;52.530;5.454;2023-05-07T14:20:49;22.90;58.40
78733;DHT22;68056;52.530;5.454;2023-05-07T14:23:15;22.80;58.40
78733;DHT22;68056;52.530;5.454;2023-05-07T14:25:42;22.60;58.50
78733;DHT22;68056;52.530;5.454;2023-05-07T14:28:08;22.60;58.50
78733;DHT22;68056;52.530;5.454;2023-05-07T14:30:34;22.50;58.60
78733;DHT22;68056;52.530;5.454;2023-05-07T14:33:00;22.50;58.70
78733;DHT22;68056;52.530;5.454;2023-05-07T14:35:26;22.40;58.90
78733;DHT22;68056;52.530;5.454;2023-05-07T14:37:51;22.30;59.00
78733;DHT22;68056;52.530;5.454;2023-05-07T14:40:17;22.30;59.10
78733;DHT22;68056;52.530;5.454;2023-05-07T14:42:42;22.20;59.20
78733;DHT22;68056;52.530;5.454;2023-05-07T14:45:08;22.20;59.00
78733;DHT22;68056;52.530;5.454;2023-05-07T14:47:34;22.10;59.00
78733;DHT22;68056;52.530;5.454;2023-05-07T14:50:01;22.00;59.40
78733;DHT22;68056;52.530;5.454;2023-05-07T14:52:27;21.90;59.50
78733;DHT22;68056;52.530;5.454;2023-05-07T14:54:52;21.90;59.60
78733;DHT22;68056;52.530;5.454;2023-05-07T14:57:18;21.90;59.70
78733;DHT22;68056;52.530;5.454;2023-05-07T14:59:45;21.90;59.60
78733;DHT22;68056;52.530;5.454;2023-05-07T15:02:12;21.80;59.60
78733;DHT22;68056;52.530;5.454;2023-05-07T15:04:40;21.80;59.70
78733;DHT22;68056;52.530;5.454;2023-05-07T15:07:11;21.70;59.70
78733;DHT22;68056;52.530;5.454;2023-05-07T15:09:40;21.70;59.70
78733;DHT22;68056;52.530;5.454;2023-05-07T15:12:06;21.70;59.80
78733;DHT22;68056;52.530;5.454;2023-05-07T15:14:31;21.70;59.90
78733;DHT22;68056;52.530;5.454;2023-05-07T15:16:57;21.50;60.00
78733;DHT22;68056;52.530;5.454;2023-05-07T15:19:23;21.50;60.20
78733;DHT22;68056;52.530;5.454;2023-05-07T15:21:50;21.40;60.50
78733;DHT22;68056;52.530;5.454;2023-05-07T15:24:16;21.30;60.60
78733;DHT22;68056;52.530;5.454;2023-05-07T15:26:41;21.30;60.60
78733;DHT22;68056;52.530;5.454;2023-05-07T15:29:07;21.20;60.70
78733;DHT22;68056;52.530;5.454;2023-05-07T15:31:35;21.10;60.90
78733;DHT22;68056;52.530;5.454;2023-05-07T15:34:03;21.10;61.00
78733;DHT22;68056;52.530;5.454;2023-05-07T15:36:29;21.10;60.90
78733;DHT22;68056;52.530;5.454;2023-05-07T15:38:55;21.10;60.90
78733;DHT22;68056;52.530;5.454;2023-05-07T15:41:21;21.00;61.00
78733;DHT22;68056;52.530;5.454;2023-05-07T15:43:49;21.00;61.10
78733;DHT22;68056;52.530;5.454;2023-05-07T15:46:18;21.00;61.10